Terminal Aerodrome Forecast
Issued by NWS

Home | Current Version | Previous Version | Text Only | Print | Product List | Glossary On
Versions: 1 2 3 4 5 6 7 8 9 10 11 12 13 14 15 16 17 18 19 20
273
FTAK31 PAJN 210520
TAFAYA
TAF
PAYA 210520Z 2106/2206 VRB03KT P6SM BKN035 OVC050
     FM210900 08003KT P6SM OVC025
     FM211400 08004KT P6SM SCT030 BKN070
     FM211800 09007KT P6SM VCSH SCT035 OVC050
     FM212300 VRB03KT P6SM BKN035 OVC050
      AMD LTD TO CLD VIS AND WIND 2106/2109=

USA.gov is the U.S. government's official web portal to all federal, state and local government web resources and services.